Home > Products > Valid Products > TAF

000
FTUS46 KEKA 022340
TAFACV
TAF
KACV 022340Z 0300/0324 31009KT P6SM SKC
     FM030600 14005KT P6SM FEW012
     FM030900 14004KT 5SM BR BKN007
     FM031200 16003KT 4SM BR BKN003
     FM031400 VRB03KT 1SM BR OVC002
     FM031800 33010KT 6SM BR BKN004
     FM032100 33012G18KT P6SM SCT005=



000
FTUS46 KEKA 022340
TAFUKI
TAF
KUKI 022340Z 0300/0324 16010KT P6SM SKC
     FM030200 16005KT P6SM SKC
     FM030600 VRB03KT P6SM SKC
     FM032000 14008KT P6SM SKC=



000
FTUS46 KEKA 022340
TAFCEC
TAF
KCEC 022340Z 0300/0324 34016KT P6SM SKC
     FM030600 35010KT 6SM BR SCT005
     FM030900 35006KT 3SM BR BKN005
     FM031600 34014KT 5SM BR SCT005 SCT250
     FM031800 34016G24KT P6SM SKC
     FM032100 34020G28KT P6SM SKC=



000
FTUS46 KEKA 022200 AAA
TAFUKI
TAF AMD
KUKI 022209Z 0222/0318 14015G21KT P6SM SKC
     FM030000 27011KT P6SM SKC
     FM030200 VRB04KT P6SM SKC
     FM030600 00000KT P6SM SKC=



000
FTUS46 KEKA 022100 AAA
TAFCEC
TAF AMD
KCEC 022155Z 0222/0318 33015KT P6SM SCT008
     FM030600 35010KT 6SM BR SCT005 SCT250
     FM030900 35006KT 3SM BR BKN005 BKN250
     FM031600 00000KT 5SM BR SCT005 BKN250=



000
FTUS46 KEKA 022100 AAB
TAFACV
TAF AMD
KACV 022155Z 0222/0318 30009KT P6SM FEW012
     FM030600 14005KT 5SM BR BKN007
     FM031000 14003KT 4SM BR BKN003=



000
FTUS46 KEKA 022000 AAA
TAFACV
TAF AMD
KACV 022017Z 0220/0318 29006KT P6SM BKN005
     FM022200 32009KT P6SM FEW012
     FM030600 14005KT 5SM BR BKN007
     FM031000 14003KT 4SM BR BKN003=



000
FTUS46 KEKA 021700
TAFACV
TAF
KACV 021736Z 0218/0318 29004KT 3SM BR BKN003
     FM022000 29006KT P6SM BKN007
     FM022200 32009KT P6SM FEW012
     FM030600 14005KT 5SM BR BKN007
     FM031000 14003KT 4SM BR BKN003=



000
FTUS46 KEKA 021700
TAFCEC
TAF
KCEC 021736Z 0218/0318 30009KT P6SM FEW005
     FM022100 33015G25KT P6SM SCT008
     FM030600 35010KT 6SM BR SCT005 SCT250
     FM030900 35006KT 3SM BR BKN005 BKN250
     FM031600 00000KT 5SM BR SCT005 BKN250=



000
FTUS46 KEKA 021700
TAFUKI
TAF
KUKI 021736Z 0218/0318 VRB04KT P6SM SKC
     FM022300 27008KT P6SM SKC
     FM030200 VRB04KT P6SM SKC
     FM030600 00000KT P6SM SKC=



000
FTUS46 KEKA 021600 AAA
TAFCEC
TAF AMD
KCEC 021608Z 0216/0312 VRB03KT 5SM BR SCT005
     FM021800 30009KT 6SM BR SCT005
     FM022100 33015G25KT P6SM SCT008
     FM030600 35010KT 6SM BR SCT005 SCT250
     FM030900 35006KT 4SM BR SCT002 BKN250=



000
FTUS46 KEKA 021300 AAA
TAFCEC
TAF AMD
KCEC 021319Z 0213/0312 VRB03KT 3SM BR BKN007
      TEMPO 0213/0215 1SM BR OVC005
     FM021800 30009KT 6SM BR SCT005
     FM022100 33015G25KT P6SM SCT008
     FM030600 35010KT 6SM BR SCT005 SCT250
     FM030900 35006KT 4SM BR SCT002 BKN250=



000
FTUS46 KEKA 021300 AAA
TAFACV
TAF AMD
KACV 021316Z 0213/0312 VRB03KT P6SM BKN007
     FM021800 30008KT P6SM SCT007
     FM022100 32010KT P6SM FEW012
     FM030600 14005KT 6SM BR SCT005
     FM031000 14003KT 4SM BR BKN003=



000
FTUS46 KEKA 021100 RRA
TAFUKI
TAF
KUKI 021141Z 0212/0312 00000KT P6SM SKC
     FM021900 10006KT P6SM SKC
     FM022300 27008KT P6SM SKC
     FM030100 36005KT P6SM SKC
     FM030400 14003KT P6SM SKC=



000
FTUS46 KEKA 021100 RRA
TAFACV
TAF
KACV 021141Z 0212/0312 VRB03KT P6SM FEW002
      TEMPO 0214/0217 4SM BR
     FM021800 30008KT P6SM SCT005
     FM022100 32010KT P6SM FEW008
     FM030600 14005KT 6SM BR SCT005
     FM031000 14003KT 4SM BR BKN003=



000
FTUS46 KEKA 021100 RRA
TAFCEC
TAF
KCEC 021141Z 0212/0312 VRB03KT 6SM BR SCT002
      TEMPO 0212/0215 4SM BR BKN002
     FM021800 30009KT 6SM BR SCT005
     FM022100 33015G25KT P6SM SCT008
     FM030600 35010KT 6SM BR SCT005 SCT250
     FM030900 35006KT 4SM BR SCT002 BKN250=



000
FTUS46 KEKA 020500
TAFCEC
TAF
KCEC 020533Z 0206/0306 16009KT 6SM BR SKC
     FM020900 16004KT 5SM BR SCT007
     FM021200 12003KT 1/2SM FG BKN002
     FM021600 34005KT 4SM BR BKN004
     FM021800 33012KT 6SM BR SCT005
     FM022100 33016G24KT P6SM SKC=



000
FTUS46 KEKA 020500
TAFACV
TAF
KACV 020533Z 0206/0306 15004KT P6SM SKC
     FM020700 14004KT 6SM BR SCT007
     FM021200 VRB03KT 3/4SM BR BKN002
     FM021700 27005KT 3SM BR BKN004
     FM021900 30007KT P6SM BKN007
     FM022100 32009KT P6SM SCT007=



000
FTUS46 KEKA 020500
TAFUKI
TAF
KUKI 020533Z 0206/0306 00000KT P6SM SKC
     FM021800 13006KT P6SM SKC
     FM022200 27008KT P6SM SKC
     FM030200 36005KT P6SM SKC=



000
FTUS46 KEKA 020400 AAA
TAFCEC
TAF AMD
KCEC 020405Z 0204/0224 15008KT 6SM BR SKC
     FM020900 16004KT 5SM BR SCT007
     FM021200 12003KT 1/2SM FG BKN002
     FM021600 34005KT 4SM BR BKN004
     FM021800 33012KT 6SM BR SCT005
     FM022100 33014G24KT P6SM SKC=



000
FTUS46 KEKA 020400 AAA
TAFCEC
TAF AMD
KCEC 020405Z 0204/0224 15008KT 6SM BR SKC
     FM020900 16004KT 5SM BR SCT007
     FM021200 12003KT 1/2SM FG BKN002
     FM021600 34005KT 4SM BR BKN004
     FM021800 33012KT 6SM BR SCT005
     FM022100 33014G24KT P6SM SKC=



000
FTUS46 KEKA 020100 AAA
TAFUKI
TAF AMD
KUKI 020103Z 0201/0224 27008KT P6SM SKC
     FM020200 36004KT P6SM SKC
     FM020400 00000KT P6SM SKC
     FM022100 13006KT P6SM SKC=



000
FTUS46 KEKA 012300
TAFCEC
TAF
KCEC 012339Z 0200/0224 35015KT P6SM FEW250
     FM020500 15008KT 5SM BR SCT007
     FM021200 12003KT 1/2SM FG BKN002
     FM021600 34005KT 4SM BR BKN004
     FM021800 33012KT 6SM BR SCT005
     FM022100 33014G24KT P6SM SKC=



000
FTUS46 KEKA 012300
TAFUKI
TAF
KUKI 012339Z 0200/0224 31008G15KT P6SM SKC
     FM020200 36004KT P6SM SKC
     FM020400 00000KT P6SM SKC
     FM022100 13006KT P6SM SKC=



000
FTUS46 KEKA 012300
TAFACV
TAF
KACV 012339Z 0200/0224 30009KT P6SM SKC
     FM020200 32005KT P6SM SKC
     FM020500 14004KT 6SM BR SCT007
     FM021200 VRB03KT 3/4SM BR BKN002
     FM021700 27005KT 3SM BR BKN004
     FM021900 30007KT P6SM BKN007
     FM022100 32009KT P6SM SCT007=



000
FTUS46 KEKA 012100 AAA
TAFCEC
TAF AMD
KCEC 012153Z 0122/0218 34015KT P6SM SKC
     FM020500 15008KT 5SM BR SCT007
     FM021200 12003KT 1/2SM FG BKN002=



000
FTUS46 KEKA 012100 AAB
TAFACV
TAF AMD
KACV 012152Z 0122/0218 32010KT P6SM SKC
     FM020100 35005KT P6SM SKC
     FM020500 13004KT 6SM BR SCT007
     FM021400 VRB03KT 3/4SM BR BKN002=



000
FTUS46 KEKA 011900 AAA
TAFACV
TAF AMD
KACV 011937Z 0120/0218 31006KT 6SM FU HZ SCT003 BKN035
     FM012000 32008KT P6SM SCT040
     FM012100 33011G20KT P6SM SKC
     FM020100 33006KT P6SM SKC
     FM020500 13004KT 6SM BR SCT007
     FM021400 VRB03KT 3/4SM BR BKN002=



000
FTUS46 KEKA 011700
TAFUKI
TAF
KUKI 011720Z 0118/0218 VRB03KT P6SM SKC
     FM012200 32008KT P6SM SKC
     FM020200 36004KT P6SM SKC=



000
FTUS46 KEKA 011700
TAFACV
TAF
KACV 011720Z 0118/0218 31006KT 6SM FU BR SCT003 BKN035
      TEMPO 0118/0120 1SM BR BKN002
     FM012000 32008KT P6SM SCT040
     FM012100 33011G20KT P6SM SKC
     FM020100 33006KT P6SM SKC
     FM020500 13004KT 6SM BR SCT007
     FM021400 VRB03KT 3/4SM BR BKN002=



000
FTUS46 KEKA 011700
TAFCEC
TAF
KCEC 011720Z 0118/0218 19005KT P6SM SKC
     FM011900 28006KT P6SM SKC
     FM012000 34015G24KT P6SM SKC
     FM020500 15008KT 5SM BR SCT007
     FM021200 12003KT 1/2SM FG BKN002=



000
FTUS46 KEKA 011500 CCB
TAFACV
TAF COR
KACV 011546Z 0116/0212 15004KT 2SM BR HZ BKN004
      TEMPO 0116/0118 1/4SM FG BKN002
     FM011800 32008KT P6SM SCT002
     FM012100 32010G18KT P6SM SKC
     FM020300 33006KT P6SM SKC
     FM020500 VRB03KT P6SM SKC=



000
FTUS46 KEKA 011500 AAB
TAFACV
TAF AMD
KACV 011541Z 0116/0212 15004KT 6SM BR HZ SCT002
      TEMPO 0116/0118 1 1/2SM BR BKN002
     FM011800 32008KT P6SM SCT002
     FM012100 32010G18KT P6SM SKC
     FM020300 33006KT P6SM SKC
     FM020500 VRB03KT P6SM SKC=



000
FTUS46 KEKA 011200 CCA
TAFACV
TAF COR
KACV 011248Z 0113/0212 VRB03KT P6SM SCT008
     FM011400 VRB05KT P6SM SCT009
     FM011800 32008KT P6SM SKC
     FM012100 32010G18KT P6SM SKC
     FM020300 33006KT P6SM SKC
     FM020500 VRB03KT P6SM SKC=



000
FTUS46 KEKA 011200 AAA
TAFACV
TAF AMD
KACV 011241Z 0113/0212 VRB03KT P6SM BKN007
     FM011400 VRB05KT P6SM BKN009
     FM011800 32008KT P6SM SKC
     FM012100 32010G18KT P6SM SKC
     FM020300 33006KT P6SM SKC
     FM020500 VRB03KT P6SM SKC=



000
FTUS46 KEKA 011100
TAFCEC
TAF
KCEC 011125Z 0112/0212 VRB03KT 3SM BR SCT004
     FM011500 VRB05KT 4SM BR SCT004
     FM011800 32008KT P6SM SKC
     FM012100 34012G20KT P6SM SKC
     FM020300 35008KT P6SM SKC
     FM020900 VRB03KT 4SM BR SCT005=



000
FTUS46 KEKA 011100
TAFUKI
TAF
KUKI 011125Z 0112/0212 00000KT P6SM SKC
     FM011800 VRB04KT P6SM SKC
     FM012200 32008KT P6SM SKC
     FM020200 36004KT P6SM SKC
     FM020500 00000KT P6SM SKC=



000
FTUS46 KEKA 011100
TAFACV
TAF
KACV 011125Z 0112/0212 VRB03KT P6SM SCT250
     FM011400 VRB05KT P6SM SCT250
     FM011800 32008KT P6SM SKC
     FM012100 32010G18KT P6SM SKC
     FM020300 33006KT P6SM SKC
     FM020500 VRB03KT P6SM SKC=



000
FTUS46 KEKA 011100 CCA
TAFCEC
TAF COR
KCEC 011101Z 0110/0206 00000KT 3SM BR BKN004
     FM011200 00000KT 5SM BR BKN006
     FM011300 VRB03KT 1/4SM FG BKN002
     FM011500 VRB05KT 2SM BR FEW002
     FM011800 32012KT P6SM SKC
     FM012100 34014G24KT P6SM SKC=



000
FTUS46 KEKA 011100 CCE
TAFACV
TAF COR
KACV 011100Z 0110/0206 VRB03KT P6SM SCT250
     FM011200 00000KT P6SM BKN009
     FM011400 04002KT 1SM BR BKN003
     FM011800 31007KT P6SM FEW003
     FM012000 32010G18KT P6SM SKC
     FM020300 33008KT 6SM HZ SKC=



000
FTUS46 KEKA 011000 CCD
TAFACV
TAF COR
KACV 011012Z 0110/0206 VRB03KT P6SM SCT009
     FM011200 00000KT P6SM BKN009
     FM011400 04002KT 1SM BR BKN003
     FM011800 31007KT P6SM FEW003
     FM012000 32010G18KT P6SM SKC
     FM020300 33008KT 6SM HZ SKC=



000
FTUS46 KEKA 011000 AAC
TAFCEC
TAF AMD
KCEC 011001Z 0110/0206 VRB03KT 4SM BR SCT006
     FM011200 00000KT 5SM BR BKN006
     FM011300 VRB03KT 1/4SM FG BKN002
     FM011500 VRB05KT 2SM BR FEW002
     FM011800 32012KT P6SM SKC
     FM012100 34014G24KT P6SM SKC=



000
FTUS46 KEKA 010900 CCC
TAFACV
TAF COR
KACV 010959Z 0110/0206 VRB03KT P6SM BKN009
     FM011200 00000KT P6SM OVC006
     FM011400 04002KT 1SM BR BKN003
     FM011800 31007KT P6SM FEW003
     FM012000 32010G18KT P6SM SKC
     FM020300 33008KT 6SM HZ SKC=



000
FTUS46 KEKA 010900 AAB
TAFACV
TAF AMD
KACV 010943Z 0110/0206 VRB03KT P6SM BKN007
     FM011200 00000KT P6SM OVC006
     FM011400 04002KT 1SM BR BKN003
     FM011800 31007KT P6SM FEW003
     FM012000 32010G18KT P6SM SKC
     FM020300 33008KT 6SM HZ SKC=



000
FTUS46 KEKA 010800 AAB
TAFCEC
TAF AMD
KCEC 010857Z 0109/0206 00000KT 2SM BR BKN005
     FM011200 00000KT 1SM BR OVC004
     FM011300 VRB03KT 1/4SM FG BKN002
     FM011500 VRB05KT 2SM BR FEW002
     FM011800 32012KT P6SM SKC
     FM012100 34014G24KT P6SM SKC=



000
FTUS46 KEKA 010800 CCB
TAFACV
TAF COR
KACV 010831Z 0108/0206 00000KT P6SM SCT006
     FM011200 00000KT P6SM OVC006
     FM011400 04002KT 1SM BR BKN003
     FM011800 31007KT P6SM FEW003
     FM012000 32010G18KT P6SM SKC
     FM020300 33008KT 6SM HZ SKC=



000
FTUS46 KEKA 010800 CCA
TAFACV
TAF COR
KACV 010807Z 0108/0206 00000KT P6SM BKN004
     FM011100 00000KT P6SM OVC004
     FM011400 04002KT 1SM BR BKN003
     FM011800 31007KT P6SM FEW003
     FM012000 32010G18KT P6SM SKC
     FM020300 33008KT 6SM HZ SKC=



000
FTUS46 KEKA 010800 AAA
TAFCEC
TAF AMD
KCEC 010806Z 0108/0206 00000KT 5SM BR SKC
     FM011000 35004KT 6SM BR SCT003
     FM011200 VRB03KT 1/4SM FG BKN002
     FM011600 34007KT 6SM BR FEW002
     FM011800 32012KT P6SM SKC
     FM012100 34014G24KT P6SM SKC=



000
FTUS46 KEKA 010800 AAA
TAFACV
TAF AMD
KACV 010805Z 0108/0206 35004KT P6SM BKN004
     FM011100 00000KT P6SM OVC004
     FM011400 04002KT 1SM BR BKN003
     FM011800 31007KT P6SM FEW003
     FM012000 32010G18KT P6SM SKC
     FM020300 33008KT 6SM HZ SKC=



000
FTUS46 KEKA 010500
TAFCEC
TAF
KCEC 010539Z 0106/0206 34011KT P6SM SKC
     FM011000 35004KT 6SM BR SCT003
     FM011200 VRB03KT 1/4SM FG BKN002
     FM011600 34007KT 6SM BR FEW002
     FM011800 32012KT P6SM SKC
     FM012100 34014G24KT P6SM SKC=



000
FTUS46 KEKA 010500
TAFACV
TAF
KACV 010539Z 0106/0206 35004KT 6SM BR FEW015
     FM011000 00000KT 6SM BR SCT007
     FM011400 04002KT 1SM BR BKN003
     FM011800 31007KT P6SM FEW003
     FM012000 32010G18KT P6SM SKC
     FM020300 33008KT 6SM HZ SKC=



000
FTUS46 KEKA 010500
TAFUKI
TAF
KUKI 010539Z 0106/0206 00000KT P6SM SKC
     FM011800 VRB04KT P6SM SKC
     FM012100 33008G15KT P6SM SKC
     FM020300 36004KT P6SM SKC=



000
FTUS46 KEKA 312300
TAFUKI
TAF
KUKI 312337Z 0100/0124 31008G15KT P6SM SKC
     FM010300 35005KT P6SM SKC
     FM010500 00000KT P6SM SKC
     FM012100 33008G15KT P6SM SKC=



000
FTUS46 KEKA 312300
TAFACV
TAF
KACV 312337Z 0100/0124 34016G24KT P6SM SKC
     FM010200 34012KT 6SM HZ SKC
     FM010400 35004KT P6SM SKC
     FM010800 00000KT 6SM BR SCT004
     FM011400 04002KT 1SM BR BKN003
     FM011800 32012KT P6SM FEW003=



000
FTUS46 KEKA 312300
TAFCEC
TAF
KCEC 312337Z 0100/0124 33016G25KT P6SM SKC
     FM010400 34011KT P6SM SKC
     FM010800 35004KT 6SM BR SCT007
     FM011200 00000KT 1/4SM FG BKN002
     FM011600 34007KT 6SM BR FEW002
     FM011800 32012KT P6SM SKC
     FM012100 33014G24KT P6SM SKC=



000
FTUS46 KEKA 312200 AAB
TAFACV
TAF AMD
KACV 312205Z 3122/0118 34016G23KT P6SM SKC
     FM010200 34008KT 6SM HZ SKC
     FM010800 00000KT 6SM BR SCT004
     FM011500 04002KT 1SM BR BKN003=



000
FTUS46 KEKA 311900 AAA
TAFACV
TAF AMD
KACV 311953Z 3120/0118 31012G20KT P6SM SKC
     FM010200 34006KT 6SM HZ SKC
     FM010800 00000KT 6SM BR SCT004
     FM011500 04002KT 3/4SM BR BKN003=



000
FTUS46 KEKA 311900 CCA
TAFCEC
TAF COR
KCEC 311910Z 3118/0118 34012G20KT P6SM SKC
     FM312200 34016G25KT P6SM SKC
     FM010300 35010KT P6SM SCT007
     FM011200 00000KT 1/4SM FG BKN002=



000
FTUS46 KEKA 311700
TAFUKI
TAF
KUKI 311726Z 3118/0118 00000KT P6SM SKC
     FM312000 33008G15KT P6SM SKC
     FM010200 35005KT P6SM SKC
     FM010500 00000KT P6SM SKC=



000
FTUS46 KEKA 311700
TAFACV
TAF
KACV 311726Z 3118/0118 33004KT P6SM SKC
      TEMPO 3118/3120 2SM BR BKN005
     FM312000 33012G18KT P6SM SKC
     FM010300 34006KT P6SM SCT007
     FM010800 00000KT 6SM BR OVC006
     FM011400 04002KT 3/4SM BR OVC003=



000
FTUS46 KEKA 311700
TAFCEC
TAF
KCEC 311726Z 3118/0118 34007KT P6SM SKC
     FM312100 33014G22KT P6SM SKC
     FM010300 35010KT P6SM SCT007
     FM011200 00000KT 1/4SM FG BKN002=



000
FTUS46 KEKA 311600 AAC
TAFCEC
TAF AMD
KCEC 311631Z 3117/0112 02004KT P6SM SCT002
     FM311800 31008KT P6SM SCT200
     FM312200 33012G18KT P6SM SCT200
     FM010400 35006KT P6SM SCT200=



000
FTUS46 KEKA 311500 AAB
TAFACV
TAF AMD
KACV 311558Z 3116/0112 VRB03KT P6SM SCT005
      TEMPO 3116/3118 BKN006
     FM311800 32006KT P6SM SCT007
     FM311900 33012G18KT P6SM SCT200
     FM010500 34006KT P6SM SCT200=



000
FTUS46 KEKA 311500 AAB
TAFCEC
TAF AMD
KCEC 311553Z 3116/0112 VRB03KT 2SM BR OVC003
      TEMPO 3116/3117 1/4SM FG VV002
     FM311700 VRB03KT 5SM BR SCT003
     FM311800 31008KT P6SM SCT200
     FM312200 33012G18KT P6SM SCT200
     FM010400 35006KT P6SM SCT200=



000
FTUS46 KEKA 311300 AAA
TAFACV
TAF AMD
KACV 311333Z 3114/0112 VRB03KT P6SM OVC009
     FM311500 VRB03KT P6SM BKN015
     FM311700 32006KT P6SM SCT200
     FM311900 33012G18KT P6SM SCT200
     FM010500 34006KT P6SM SCT200=



000
FTUS46 KEKA 311300 AAA
TAFCEC
TAF AMD
KCEC 311302Z 3113/0112 VRB03KT P6SM OVC003
      TEMPO 3113/3116 1/2SM FG VV002
     FM311600 VRB03KT P6SM OVC005
     FM311700 31008KT P6SM SCT200
     FM312200 33012G18KT P6SM SCT200
     FM010400 35006KT P6SM SCT200=



000
FTUS46 KEKA 311200 CCA
TAFACV
TAF COR
KACV 311231Z 3112/0112 VRB03KT P6SM BKN010
     FM311400 VRB03KT P6SM BKN015
     FM311600 32006KT P6SM SCT200
     FM311900 33012G18KT P6SM SCT200
     FM010500 34006KT P6SM SCT200=



000
FTUS46 KEKA 311200 CCB
TAFCEC
TAF COR
KCEC 311229Z 3112/0112 VRB03KT P6SM OVC003
      TEMPO 3112/3116 3SM BR OVC002
     FM311600 VRB03KT P6SM OVC005
     FM311700 31008KT P6SM SCT200
     FM312200 33012G18KT P6SM SCT200
     FM010400 35006KT P6SM SCT200=



000
FTUS46 KEKA 311200 CCA
TAFCEC
TAF COR
KCEC 311204Z 3112/0112 VRB03KT P6SM OVC003
     FM311500 VRB03KT P6SM OVC005
     FM311700 31008KT P6SM SCT200
     FM312200 33012G18KT P6SM SCT200
     FM010400 35006KT P6SM SCT200=



000
FTUS46 KEKA 311100
TAFUKI
TAF
KUKI 311125Z 3112/0112 00000KT P6SM SKC
     FM311600 VRB05KT P6SM SKC
     FM312000 33008G15KT P6SM SKC
     FM010200 35005KT P6SM SKC
     FM010500 00000KT P6SM SKC=



000
FTUS46 KEKA 311100
TAFCEC
TAF
KCEC 311125Z 3112/0112 VRB03KT 3SM BR OVC003
     FM311300 VRB03KT 4SM BR OVC005
     FM311500 VRB04KT 6SM BR SCT008
     FM311700 31008KT P6SM SCT200
     FM312200 33012G18KT P6SM SCT200
     FM010400 35006KT P6SM SCT200=



000
FTUS46 KEKA 311100
TAFACV
TAF
KACV 311125Z 3112/0112 VRB03KT P6SM FEW013
     FM311400 VRB03KT P6SM SCT015
     FM311600 32006KT P6SM SCT200
     FM311900 33012G18KT P6SM SCT200
     FM010500 34006KT P6SM SCT200=



000
FTUS46 KEKA 311100 AAC
TAFCEC
TAF AMD
KCEC 311101Z 3111/0106 VRB03KT 1/2SM FG VV003
     FM311300 VRB03KT 3SM BR OVC005
     FM311500 35004KT 4SM BR SCT008
     FM311700 32010KT P6SM SCT200
     FM312100 32013G20KT P6SM SCT200=



000
FTUS46 KEKA 311000 CCB
TAFACV
TAF COR
KACV 311057Z 3110/0106 VRB03KT P6SM FEW013
     FM311400 00000KT P6SM SCT010
     FM311600 02004KT P6SM SCT200=



000
FTUS46 KEKA 311000 CCA
TAFACV
TAF COR
KACV 311030Z 3110/0106 00000KT P6SM SCT004
     FM311400 00000KT 3SM BR OVC006
     FM311600 02004KT P6SM SCT200=



000
FTUS46 KEKA 311000 AAB
TAFCEC
TAF AMD
KCEC 311016Z 3110/0106 VRB03KT P6SM BKN003
     FM311100 VRB03KT 4SM BR OVC005
     FM311500 35004KT 4SM BR SCT008
     FM311700 32010KT P6SM SCT200
     FM312100 32013G20KT P6SM SCT200=



000
FTUS46 KEKA 311000 AAA
TAFACV
TAF AMD
KACV 311005Z 3110/0106 00000KT P6SM BKN004
     FM311400 00000KT 3SM BR OVC006
     FM311600 02004KT P6SM SCT200=



000
FTUS46 KEKA 310800 CCA
TAFCEC
TAF COR
KCEC 310814Z 3108/0106 00000KT P6SM SCT004
     FM311100 VRB03KT 4SM BR OVC005
     FM311500 35004KT 4SM BR SCT008
     FM311700 32010KT P6SM SCT200
     FM312100 32013G20KT P6SM SCT200=



000
FTUS46 KEKA 310700 AAA
TAFCEC
TAF AMD
KCEC 310755Z 3108/0106 00000KT 5SM BR BKN004
     FM311100 VRB03KT 4SM BR OVC005
     FM311500 35004KT 4SM BR SCT008
     FM311700 32010KT P6SM SCT200
     FM312100 32013G20KT P6SM SCT200=



000
FTUS46 KEKA 310500
TAFCEC
TAF
KCEC 310526Z 3106/0106 36004KT P6SM SCT250
     FM311100 VRB03KT 4SM BR OVC006
     FM311500 35004KT 4SM BR SCT008
     FM311700 32010KT P6SM SCT200
     FM312100 32013G20KT P6SM SCT200=



000
FTUS46 KEKA 310500
TAFUKI
TAF
KUKI 310526Z 3106/0106 VRB04KT P6SM SKC
     FM310900 00000KT P6SM SKC
     FM311800 32006KT P6SM SKC=



000
FTUS46 KEKA 310500
TAFACV
TAF
KACV 310526Z 3106/0106 VRB04KT P6SM SCT250
     FM311100 00000KT 3SM BR OVC006
     FM311600 02004KT P6SM SCT200=



000
FTUS46 KEKA 310400 AAF
TAFACV
TAF AMD
KACV 310450Z 3105/3124 33006KT P6SM SKC
     FM311000 00000KT 2SM BR OVC006
     FM311600 02004KT P6SM SCT200=



000
FTUS46 KEKA 310400 AAE
TAFACV
TAF AMD
KACV 310424Z 3104/3124 33006KT P6SM SKC
      TEMPO 3104/3107 1/2SM FG VV002
     FM310700 33009KT 1SM BR BKN002
     FM311000 00000KT 2SM BR OVC006
     FM311600 02004KT P6SM SCT200=



000
FTUS46 KEKA 310400 AAD
TAFCEC
TAF AMD
KCEC 310403Z 3104/3124 36006KT P6SM FEW006
     FM311000 VRB03KT 1SM BR OVC004
     FM311500 35004KT 4SM BR SCT008
     FM311700 32010KT P6SM SCT200
     FM312100 32013G20KT P6SM SCT200=



000
FTUS46 KEKA 310300 AAC
TAFCEC
TAF AMD
KCEC 310340Z 3104/3124 01005KT P6SM SCT006
      TEMPO 3104/3106 BKN006
     FM310600 35005KT 3SM BR BKN006
     FM310800 VRB03KT 1SM BR OVC004
     FM311530 35004KT 4SM BR SCT008
     FM311700 32010KT P6SM SCT200=



000
FTUS46 KEKA 310300 AAD
TAFACV
TAF AMD
KACV 310320Z 3103/3124 33006KT P6SM SCT002
      TEMPO 3103/3106 1/2SM FG VV001
     FM310600 33009KT 1SM BR BKN002
     FM311000 00000KT 2SM BR OVC006
     FM311600 02004KT P6SM SCT200=



000
FTUS46 KEKA 310300 AAB
TAFCEC
TAF AMD
KCEC 310313Z 3103/3124 34007KT P6SM BKN008
     FM310500 35005KT 2SM BR OVC006
     FM310800 VRB03KT 1SM BR OVC004
     FM311530 35004KT 4SM BR SCT008
     FM311700 32010KT P6SM SCT200=



000
FTUS46 KEKA 310300 AAB
TAFUKI
TAF AMD
KUKI 310312Z 3103/3124 31010KT P6SM SKC
     FM310400 36006KT P6SM SKC
     FM311800 32009KT P6SM SKC=



000
FTUS46 KEKA 310200 AAC
TAFACV
TAF AMD
KACV 310231Z 3102/3124 33012KT 1/4SM FG VV001
     FM310700 33009KT 1SM BR BKN002
     FM311000 00000KT 2SM BR OVC006
     FM311600 02004KT P6SM SCT200=



000
FTUS46 KEKA 310200 AAB
TAFACV
TAF AMD
KACV 310211Z 3102/3124 32014KT 1SM BR VV001
     FM310300 32008KT 2SM BR OVC002
     FM310700 VRB03KT 1SM BR BKN003
     FM311000 00000KT 2SM BR OVC006
     FM311600 02004KT P6SM SCT200=



000
FTUS46 KEKA 310100 AAA
TAFCEC
TAF AMD
KCEC 310155Z 3102/3124 VRB04KT 3SM BR OVC006
     FM310600 35005KT 2SM BR OVC006
     FM310800 VRB03KT 1SM BR OVC004
     FM311530 35004KT 4SM BR SCT008
     FM311700 32010KT P6SM SCT200=



000
FTUS46 KEKA 310100 AAA
TAFACV
TAF AMD
KACV 310119Z 3101/3124 32012G26KT P6SM FEW002
     FM310300 32008KT P6SM SCT002
     FM310700 VRB03KT 4SM BR BKN004
     FM311000 00000KT 2SM BR OVC006
     FM311600 02004KT P6SM SCT200=



000
FTUS46 KEKA 310000 AAA
TAFUKI
TAF AMD
KUKI 310007Z 3100/3124 29009G20KT P6SM SKC
     FM310200 36006KT P6SM SKC
     FM311800 32009KT P6SM SKC=



    US Dept of Commerce
    National Oceanic and Atmospheric Administration
    National Weather Service
    1325 East West Highway
    Silver Spring, MD 20910
    Page Author: NWS Internet Services Team
Disclaimer
Information Quality
Credits
Glossary
Privacy Policy
Freedom of Information Act (FOIA)
About Us
Career Opportunities